Sites météorologiques /Documentations/ Programmes:

Météo Québec
Site web version 2
Modèle de Meteotemplate

CoCoRaHS Canada
Station CAN-QC-39

En Alerte
*** Système d'alerte
en urgence ***

Québec en Alerte

Météo Alerte Québec

Météo Centre

État des routes
Québec 511

Orage Québec

Québec Vortex
chasseurs de tempêtes

Hydro Météo (info-rivière)

Avalanche Québec

Agrométéo Québec

Bulletin des agriculteurs secteur Québec

Réseau Météo-Québec

Réseau Météo des Provinces Atlantiques

Réseau Météo Ontario

Séismes Canada
l'Est du Canada

Fire Smoke Canada

Canwarn Québec

Climat Québec

Environnement Canada

MétéoMédia

Leuven Template

Réseau de transport de la Capitale (RTC)


Équipements et logiciels de la station:

Davis Pro 2

Weather Display

Asus/Intel

Rapidenet Canada

Il n'y a aucun avertissements, veilles ou avis météorologiques en vigueur en ce moment.

Rapports d'observations METAR régionales et provinciales

   
CWPD - L'ÉTAPE
Mise à jour: 15-12-2018 17:00
  
  
   
Température: -3°C
Point de rosée: -4°C
Humidité relative: 93%
CWPD 152100Z AUTO 36001KT M03/M04 RMK AO1 SLP206 T10261035 52020
CYBG - BAGOTVILLE
Mise à jour: 15-12-2018 17:00
  
  
   
Température: 1°C
Facteur éolien: -2°C
Point de rosée: -1°C
Humidité relative: 87%
Pression barométrique: 102.1 kPa
Nuages: Nuageux
visibilité: 40.2 km
Détails des nuages: Nuageux 5000 ft
CYBG 152100Z 27006KT 25SM OVC050 01/M01 A3015 RMK SC8 SLP220
CYRJ - ROBERVAL
Mise à jour: 15-12-2018 17:00
  
  
   
Température: 1°C
Facteur éolien: -1°C
Point de rosée: -2°C
Humidité relative: 81%
Pression barométrique: 102.17 kPa
Nuages: Généralement nuageux
visibilité: 40.2 km
Détails des nuages: Généralement nuageux 3500 ft
CYRJ 152100Z 28004KT 25SM BKN035 01/M02 A3017 RMK SC7 SLP226
CYRQ - TROIS-RIVIÈRES
Mise à jour: 15-12-2018 17:00
  
  
   
Température: 3°C
Point de rosée: -1°C
Humidité relative: 75%
Pression barométrique: 102.44 kPa
Nuages: Nuageux
visibilité: 14.5 km
Détails des nuages: Nuageux 3900 ft
CYRQ 152100Z AUTO 28002KT 9SM OVC039 03/M01 A3025 RMK SLP248
CYYY - MONT-JOLI
Mise à jour: 15-12-2018 17:00
  
  
   
Température: 1°C
Facteur éolien: -4°C
Point de rosée: -3°C
Humidité relative: 75%
Pression barométrique: 101.93 kPa
Nuages: Généralement nuageux
visibilité: 48.3 km
Détails des nuages: Généralement nuageux 4600 ft
CYYY 152100Z 27010KT 30SM BKN046 01/M03 A3010 RMK SC7 SLP198
CYUL - MONTRÉAL
Mise à jour: 15-12-2018 17:00
  
  
   
Température: 4°C
Facteur éolien: 3°C
Point de rosée: -1°C
Humidité relative: 70%
Pression barométrique: 102.51 kPa
Nuages: Généralement nuageux
visibilité: 24.1 km
Détails des nuages: Généralement nuageux 4000 ft,
Généralement nuageux 25000 ft
CYUL 152100Z 28003KT 15SM BKN040 BKN250 04/M01 A3027 RMK SC6CI1 SLP253
CYQB - QUÉBEC
Mise à jour: 15-12-2018 17:00
  
  
   
Température: 2°C
Facteur éolien: -2°C
Point de rosée: 0°C
Humidité relative: 87%
Pression barométrique: 102.3 kPa
Nuages: Généralement nuageux
visibilité: 24.1 km
Détails des nuages: Généralement nuageux 3900 ft
CYQB 152100Z 23007KT 15SM BKN039 02/M00 A3021 RMK SC7 SLP236
CYRJ - SAGUENUAY
Mise à jour: 15-12-2018 17:00
  
  
   
Température: 1°C
Facteur éolien: -1°C
Point de rosée: -2°C
Humidité relative: 81%
Pression barométrique: 102.17 kPa
Nuages: Généralement nuageux
visibilité: 40.2 km
Détails des nuages: Généralement nuageux 3500 ft
CYRJ 152100Z 28004KT 25SM BKN035 01/M02 A3017 RMK SC7 SLP226
CWZS - AMQUI
Mise à jour: 15-12-2018 17:00
  
  
   
Température: 1°C
Facteur éolien: -4°C
Point de rosée: -4°C
Humidité relative: 70%
CWZS 152100Z AUTO 30011G18KT 01/M04 RMK AO1 3031 PK WND 29018/2052 SLP181 T00141040 50010
CWOC - NEW CARLISLE
Mise à jour: 15-12-2018 17:00
  
  
   
Température: 1°C
Facteur éolien: -4°C
Point de rosée: -2°C
Humidité relative: 81%
CWOC 152100Z AUTO 29010G17KT 01/M02 RMK AO1 PK WND 27017/2056 SLP159 T00071018 53024
CYBX - BLANC-SABLON
Mise à jour: 15-12-2018 17:00
  
  
   
Température: -4°C
Facteur éolien: -9°C
Point de rosée: -6°C
Humidité relative: 86%
Pression barométrique: 100.1 kPa
Nuages: Quelques nuages
visibilité: 24.1 km
Détails des nuages: Quelques nuages 5000 ft
CYBX 152100Z 29009KT 15SM FEW050 M04/M06 A2956 RMK SC2 SLP013
CYAD - BAIE-JAMES
Mise à jour: 30-10-2015 16:00
PAS actuel
  
  
   
Température: -2°C
Facteur éolien: -8°C
Point de rosée: -4°C
Humidité relative: 86%
Pression barométrique: 100.51 kPa
Nuages: Nuageux
visibilité: 9.7 km
Détails des nuages: Nuageux 1200 ft
CYAD 302000Z 31011G17KT 6SM -SHSN OVC012 M02/M04 A2968 RMK SC7 LAST OBS/NEXT 021200 UTC SLP066
CYMT - CHIBOUGAMAU
Mise à jour: 15-12-2018 17:00
  
  
   
Température: -3°C
Facteur éolien: -8°C
Point de rosée: -5°C
Humidité relative: 86%
Pression barométrique: 102.1 kPa
Nuages: Nuageux
visibilité: 14.5 km
Détails des nuages: Nuageux 1300 ft
CYMT 152100Z AUTO 29007KT 9SM OVC013 M03/M05 A3015 RMK SLP235
CYGR - ILES-DE-LA-MADELEINE
Mise à jour: 15-12-2018 17:00
  
  
   
Température: 0°C
Facteur éolien: -6°C
Point de rosée: -1°C
Humidité relative: 93%
Pression barométrique: 101.29 kPa
Nuages: Quelques nuages
visibilité: 24.1 km
Détails des nuages: Quelques nuages 4500 ft
CYGR 152100Z 29014G20KT 15SM FEW045 00/M01 A2991 RMK SC1 SC TR SLP132
CWBY - PORT-MENIER
Mise à jour: 15-12-2018 17:00
  
  
   
Température: 1°C
Facteur éolien: -4°C
Point de rosée: -2°C
Humidité relative: 81%
CWBY 152100Z AUTO 28013G20KT 01/M02 RMK AO1 SOG 23 2025 PK WND 28020/2056 SLP117 T00061018
CYZV - SEPT-ILES
Mise à jour: 15-12-2018 17:00
  
  
   
Température: 0°C
Facteur éolien: -5°C
Point de rosée: -4°C
Humidité relative: 75%
Pression barométrique: 101.39 kPa
Nuages: Généralement nuageux
visibilité: 48.3 km
Détails des nuages: Généralement nuageux 7000 ft
CYZV 152100Z 28010KT 30SM BKN070 00/M04 A2994 RMK AC6 SLP145
CYGP - SHERBROOKE
Mise à jour: 15-12-2018 17:00
  
  
   
Température: 0°C
Facteur éolien: -3°C
Point de rosée: -4°C
Humidité relative: 75%
Pression barométrique: 101.35 kPa
Nuages: Quelques nuages
visibilité: 24.1 km
Détails des nuages: Quelques nuages 6000 ft
CYGP 152100Z 27006KT 15SM FEW060 00/M04 A2993 RMK SC1 SLP140
CYZV - GATINEAU
Mise à jour: 15-12-2018 17:00
  
  
   
Température: 0°C
Facteur éolien: -5°C
Point de rosée: -4°C
Humidité relative: 75%
Pression barométrique: 101.39 kPa
Nuages: Généralement nuageux
visibilité: 48.3 km
Détails des nuages: Généralement nuageux 7000 ft
CYZV 152100Z 28010KT 30SM BKN070 00/M04 A2994 RMK AC6 SLP145
CYOW - OTTAWA
Mise à jour: 15-12-2018 17:00
  
  
   
Température: 2°C
Point de rosée: -1°C
Humidité relative: 81%
Pression barométrique: 102.47 kPa
Nuages: Généralement nuageux
visibilité: 24.1 km
Détails des nuages: Quelques nuages 4000 ft,
Généralement nuageux 28000 ft
CYOW 152100Z 00000KT 15SM FEW040 BKN280 02/M01 A3026 RMK SC2CI5 SLP254
  

Script original développé par  Saratoga-weather.org Adapté pour le modèle par  Weerstation Leuven

Les données sont envoyées via ces sites météo:

WeatherCloud

Weather Underground

Quebec Weather Network

AWEKAS

HAMweather, WeatherForYou, PWS Weather